createdAt,value
2023-02-19T00:01:34.040Z,10.52
2023-02-19T00:04:02.011Z,9.10
2023-02-19T00:06:29.658Z,10.25
2023-02-19T00:08:57.005Z,9.47
2023-02-19T00:11:25.032Z,8.95
2023-02-19T00:13:53.187Z,9.32
2023-02-19T00:16:21.256Z,8.60
2023-02-19T00:18:48.414Z,7.65
2023-02-19T00:21:17.296Z,7.60
2023-02-19T00:23:44.537Z,7.70
2023-02-19T00:26:18.179Z,8.43
2023-02-19T00:28:46.035Z,8.17
2023-02-19T00:31:13.606Z,8.45
2023-02-19T00:33:41.144Z,7.88
2023-02-19T00:36:08.399Z,8.77
2023-02-19T00:38:38.680Z,9.00
2023-02-19T00:41:19.006Z,8.00
2023-02-19T00:43:48.958Z,8.95
2023-02-19T00:46:17.646Z,8.57
2023-02-19T00:48:44.841Z,9.07
2023-02-19T00:51:12.164Z,8.70
2023-02-19T00:53:40.118Z,9.18
2023-02-19T00:56:07.424Z,8.52
2023-02-19T00:58:34.597Z,8.10
2023-02-19T01:01:01.803Z,8.23
2023-02-19T01:03:28.971Z,8.15
2023-02-19T01:05:56.180Z,8.43
2023-02-19T01:08:23.380Z,8.13
2023-02-19T01:10:50.545Z,8.73
2023-02-19T01:13:17.877Z,8.13
2023-02-19T01:15:45.272Z,8.85
2023-02-19T01:18:12.465Z,8.80
2023-02-19T01:20:40.764Z,8.40
2023-02-19T01:23:08.007Z,7.78
2023-02-19T01:25:35.161Z,9.10
2023-02-19T01:28:02.341Z,9.00
2023-02-19T01:30:29.568Z,9.25
2023-02-19T01:32:56.739Z,8.60
2023-02-19T01:35:23.960Z,8.98
2023-02-19T01:37:51.166Z,9.00
2023-02-19T01:40:18.423Z,9.43
2023-02-19T01:42:45.591Z,9.57
2023-02-19T01:45:23.368Z,10.02
2023-02-19T01:48:01.173Z,9.30
2023-02-19T01:50:28.956Z,8.60
2023-02-19T01:52:56.402Z,9.75
2023-02-19T01:55:23.590Z,9.95
2023-02-19T01:57:51.194Z,9.75
2023-02-19T02:00:18.434Z,9.95
2023-02-19T02:02:48.658Z,10.50
2023-02-19T02:05:21.105Z,9.32
2023-02-19T02:08:06.724Z,9.57
2023-02-19T02:10:34.509Z,9.80
2023-02-19T02:13:01.678Z,9.63
2023-02-19T02:15:30.532Z,9.55
2023-02-19T02:17:58.338Z,10.40
2023-02-19T02:20:38.446Z,9.32
2023-02-19T02:23:05.598Z,9.85
2023-02-19T02:25:41.972Z,9.20
2023-02-19T02:28:16.092Z,9.68
2023-02-19T02:30:43.328Z,9.93
2023-02-19T02:33:19.532Z,9.70
2023-02-19T02:35:48.870Z,9.30
2023-02-19T02:38:16.118Z,9.18
2023-02-19T02:40:43.745Z,8.40
2023-02-19T02:43:11.767Z,9.55
2023-02-19T02:45:39.995Z,8.83
2023-02-19T02:48:07.214Z,9.77
2023-02-19T02:50:36.818Z,9.00
2023-02-19T02:53:22.818Z,8.80
2023-02-19T02:55:50.455Z,9.52
2023-02-19T02:58:17.641Z,9.60
2023-02-19T03:01:03.207Z,9.63
2023-02-19T03:03:30.419Z,10.23
2023-02-19T03:05:59.400Z,9.73
2023-02-19T03:08:36.556Z,9.93
2023-02-19T03:11:25.178Z,9.85
2023-02-19T03:14:16.275Z,9.32
2023-02-19T03:17:02.271Z,9.15
2023-02-19T03:19:29.522Z,9.63
2023-02-19T03:22:09.852Z,9.30
2023-02-19T03:24:57.869Z,9.02
2023-02-19T03:27:25.032Z,8.57
2023-02-19T03:29:52.173Z,8.70
2023-02-19T03:32:24.385Z,9.40
2023-02-19T03:34:53.724Z,9.65
2023-02-19T03:37:25.574Z,8.93
2023-02-19T03:39:53.243Z,8.87
2023-02-19T03:42:23.531Z,8.30
2023-02-19T03:44:54.319Z,8.00
2023-02-19T03:47:34.494Z,8.52
2023-02-19T03:50:14.202Z,9.18
2023-02-19T03:52:44.176Z,9.07
2023-02-19T03:55:17.268Z,9.27
2023-02-19T03:57:44.389Z,8.73
2023-02-19T04:00:18.242Z,8.50
2023-02-19T04:02:48.376Z,8.57
2023-02-19T04:05:17.351Z,8.85
2023-02-19T04:07:47.015Z,8.23
2023-02-19T04:10:14.200Z,8.77
2023-02-19T04:12:42.123Z,8.57
2023-02-19T04:15:11.217Z,7.60
2023-02-19T04:17:39.536Z,8.13
2023-02-19T04:20:08.148Z,7.95
2023-02-19T04:22:35.808Z,7.68
2023-02-19T04:25:02.969Z,8.77
2023-02-19T04:27:30.146Z,7.88
2023-02-19T04:29:57.332Z,7.72
2023-02-19T04:32:24.528Z,8.05
2023-02-19T04:34:54.155Z,8.52
2023-02-19T04:37:21.556Z,8.30
2023-02-19T04:39:48.725Z,9.13
2023-02-19T04:42:15.889Z,8.25
2023-02-19T04:44:43.087Z,9.13
2023-02-19T04:47:10.210Z,8.32
2023-02-19T04:49:37.336Z,8.55
2023-02-19T04:52:04.635Z,9.68
2023-02-19T04:54:31.779Z,9.18
2023-02-19T04:56:58.941Z,9.20
2023-02-19T04:59:26.231Z,8.75
2023-02-19T05:01:53.486Z,9.82
2023-02-19T05:04:20.781Z,10.38
2023-02-19T05:06:48.076Z,9.00
2023-02-19T05:09:15.250Z,9.80
2023-02-19T05:11:42.839Z,9.23
2023-02-19T05:14:09.965Z,9.10
2023-02-19T05:16:37.100Z,9.77
2023-02-19T05:19:04.311Z,9.65
2023-02-19T05:21:31.465Z,8.70
2023-02-19T05:23:58.652Z,8.68
2023-02-19T05:26:26.746Z,8.52
2023-02-19T05:28:53.972Z,8.70
2023-02-19T05:31:21.327Z,8.82
2023-02-19T05:33:51.216Z,8.45
2023-02-19T05:36:18.618Z,7.90
2023-02-19T05:38:45.805Z,7.90
2023-02-19T05:41:17.361Z,8.00
2023-02-19T05:43:44.971Z,7.47
2023-02-19T05:46:13.267Z,7.15
2023-02-19T05:48:40.444Z,7.80
2023-02-19T05:51:08.728Z,7.57
2023-02-19T05:53:36.210Z,7.60
2023-02-19T05:56:03.417Z,7.53
2023-02-19T05:58:30.664Z,8.20
2023-02-19T06:00:57.795Z,6.90
2023-02-19T06:03:27.609Z,6.03
2023-02-19T06:05:54.800Z,6.93
2023-02-19T06:08:21.948Z,5.97
2023-02-19T06:10:49.114Z,6.20
2023-02-19T06:13:17.790Z,5.47
2023-02-19T06:15:45.074Z,5.53
2023-02-19T06:18:12.297Z,4.72
2023-02-19T06:20:39.538Z,5.43
2023-02-19T06:23:06.755Z,5.28
2023-02-19T06:25:34.104Z,5.25
2023-02-19T06:28:01.247Z,4.53
2023-02-19T06:30:28.469Z,4.30
2023-02-19T06:32:55.699Z,4.45
2023-02-19T06:35:22.890Z,3.22
2023-02-19T06:37:50.935Z,3.38
2023-02-19T06:40:18.149Z,3.87
2023-02-19T06:42:45.355Z,3.33
2023-02-19T06:45:12.533Z,2.85
2023-02-19T06:47:39.724Z,2.75
2023-02-19T06:50:07.054Z,2.30
2023-02-19T06:52:34.205Z,2.42
2023-02-19T06:55:01.402Z,2.03
2023-02-19T06:57:28.573Z,2.80
2023-02-19T06:59:55.694Z,2.95
2023-02-19T07:02:22.863Z,2.28
2023-02-19T07:04:49.998Z,2.03
2023-02-19T07:07:17.167Z,2.17
2023-02-19T07:09:44.373Z,2.05
2023-02-19T07:12:11.855Z,2.45
2023-02-19T07:14:38.999Z,1.88
2023-02-19T07:17:06.178Z,2.97
2023-02-19T07:19:33.409Z,2.67
2023-02-19T07:22:00.571Z,2.90
2023-02-19T07:24:27.755Z,3.08
2023-02-19T07:26:54.954Z,2.38
2023-02-19T07:29:22.104Z,2.58
2023-02-19T07:31:49.277Z,2.50
2023-02-19T07:34:16.466Z,2.58
2023-02-19T07:36:43.612Z,2.25
2023-02-19T07:39:12.748Z,1.90
2023-02-19T07:41:39.870Z,1.67
2023-02-19T07:44:07.064Z,2.10
2023-02-19T07:46:34.256Z,1.80
2023-02-19T07:49:01.384Z,2.03
2023-02-19T07:51:28.521Z,2.08
2023-02-19T07:53:55.662Z,2.60
2023-02-19T07:56:22.851Z,2.08
2023-02-19T07:58:49.978Z,2.30
2023-02-19T08:01:40.905Z,2.45
2023-02-19T08:04:08.118Z,2.40
2023-02-19T08:06:35.256Z,2.90
2023-02-19T08:09:02.444Z,1.65
2023-02-19T08:11:48.276Z,2.90
2023-02-19T08:14:15.452Z,2.13
2023-02-19T08:16:49.274Z,1.88
2023-02-19T08:19:16.464Z,1.63
2023-02-19T08:21:43.634Z,2.20
2023-02-19T08:24:10.884Z,1.20
2023-02-19T08:26:38.011Z,1.60
2023-02-19T08:29:05.688Z,1.83
2023-02-19T08:31:33.191Z,1.98
2023-02-19T08:34:00.418Z,1.15
2023-02-19T08:36:27.678Z,1.38
2023-02-19T08:38:54.864Z,11.38
2023-02-19T08:41:22.058Z,1.57
2023-02-19T08:43:49.289Z,1.75
2023-02-19T08:46:16.521Z,1.40
2023-02-19T08:48:43.731Z,1.90
2023-02-19T08:51:11.620Z,1.80
2023-02-19T08:53:39.450Z,1.48
2023-02-19T08:56:07.329Z,0.90
2023-02-19T08:58:34.527Z,1.17
2023-02-19T09:01:01.722Z,1.10
2023-02-19T09:03:28.919Z,1.20
2023-02-19T09:05:56.060Z,1.48
2023-02-19T09:08:23.255Z,1.50
2023-02-19T09:11:00.410Z,1.17
2023-02-19T09:13:27.594Z,1.48
2023-02-19T09:15:54.897Z,1.20
2023-02-19T09:18:22.165Z,1.13
2023-02-19T09:20:49.310Z,1.67
2023-02-19T09:23:16.441Z,1.60
2023-02-19T09:25:43.635Z,1.25
2023-02-19T09:28:10.820Z,1.40
2023-02-19T09:30:38.035Z,1.23
2023-02-19T09:33:06.231Z,1.20
2023-02-19T09:35:33.457Z,0.90
2023-02-19T09:38:02.015Z,1.58
2023-02-19T09:40:30.418Z,1.65
2023-02-19T09:42:57.596Z,1.20
2023-02-19T09:45:25.138Z,1.50
2023-02-19T09:47:56.227Z,0.95
2023-02-19T09:50:24.092Z,1.00
2023-02-19T09:52:57.951Z,1.20
2023-02-19T09:55:36.197Z,1.40
2023-02-19T09:58:07.512Z,0.90
2023-02-19T10:00:35.024Z,1.35
2023-02-19T10:03:06.295Z,1.00
2023-02-19T10:05:34.153Z,0.98
2023-02-19T10:08:01.354Z,1.75
2023-02-19T10:10:29.924Z,0.90
2023-02-19T10:12:57.736Z,1.10
2023-02-19T10:15:31.265Z,1.10
2023-02-19T10:17:58.400Z,0.95
2023-02-19T10:20:27.791Z,1.17
2023-02-19T10:23:13.264Z,0.88
2023-02-19T10:25:42.449Z,1.08
2023-02-19T10:28:15.117Z,1.27
2023-02-19T10:30:42.262Z,1.38
2023-02-19T10:33:15.772Z,0.77
2023-02-19T10:36:03.068Z,0.80
2023-02-19T10:38:31.543Z,0.70
2023-02-19T10:41:02.999Z,1.23
2023-02-19T10:43:33.241Z,0.90
2023-02-19T10:46:18.654Z,0.85
2023-02-19T10:49:12.348Z,0.40
2023-02-19T10:51:40.136Z,0.98
2023-02-19T10:54:17.317Z,0.80
2023-02-19T10:56:44.505Z,0.80
2023-02-19T10:59:27.501Z,0.70
2023-02-19T11:01:55.918Z,1.48
2023-02-19T11:04:23.201Z,1.17
2023-02-19T11:06:50.468Z,1.40
2023-02-19T11:09:26.675Z,4.00
2023-02-19T11:11:54.137Z,3.78
2023-02-19T11:14:23.850Z,2.92
2023-02-19T11:16:57.579Z,4.57
2023-02-19T11:19:24.761Z,1.40
2023-02-19T11:21:52.118Z,1.65
2023-02-19T11:24:38.029Z,2.58
2023-02-19T11:27:05.957Z,2.60
2023-02-19T11:29:34.992Z,2.65
2023-02-19T11:32:23.032Z,2.15
2023-02-19T11:34:50.191Z,1.65
2023-02-19T11:37:21.078Z,1.60
2023-02-19T11:39:48.884Z,3.38
2023-02-19T11:42:19.790Z,2.15
2023-02-19T11:44:53.161Z,1.98
2023-02-19T11:47:39.323Z,1.63
2023-02-19T11:50:14.110Z,2.03
2023-02-19T11:52:51.663Z,2.08
2023-02-19T11:55:20.668Z,1.85
2023-02-19T11:57:48.568Z,1.10
2023-02-19T12:00:25.916Z,1.27
2023-02-19T12:03:02.262Z,0.85
2023-02-19T12:05:48.217Z,0.77
2023-02-19T12:08:34.265Z,1.77
2023-02-19T12:11:05.103Z,3.30
2023-02-19T12:13:32.234Z,1.65
2023-02-19T12:16:02.209Z,2.63
2023-02-19T12:18:42.602Z,4.72
2023-02-19T12:21:16.414Z,1.80
2023-02-19T12:23:48.054Z,4.95
2023-02-19T12:26:15.252Z,1.67
2023-02-19T12:28:49.055Z,1.48
2023-02-19T12:31:35.306Z,2.17
2023-02-19T12:34:21.263Z,3.92
2023-02-19T12:37:11.264Z,3.30
2023-02-19T12:39:41.501Z,2.40
2023-02-19T12:42:27.064Z,2.20
2023-02-19T12:45:20.809Z,2.42
2023-02-19T12:48:08.284Z,1.13
2023-02-19T12:50:36.028Z,1.10
2023-02-19T12:53:06.294Z,0.50
2023-02-19T12:55:35.017Z,0.70
2023-02-19T12:58:04.318Z,0.70
2023-02-19T13:00:50.671Z,0.43
2023-02-19T13:03:44.216Z,0.55
2023-02-19T13:06:12.749Z,0.40
2023-02-19T13:08:48.822Z,0.40
2023-02-19T13:11:21.804Z,0.55
2023-02-19T13:13:59.714Z,0.50
2023-02-19T13:16:27.020Z,0.60
2023-02-19T13:18:55.254Z,0.52
2023-02-19T13:21:41.102Z,0.82
2023-02-19T13:24:11.037Z,2.78
2023-02-19T13:26:50.572Z,0.50
2023-02-19T13:29:20.767Z,0.82
2023-02-19T13:31:56.935Z,0.50
2023-02-19T13:34:42.872Z,0.90
2023-02-19T13:37:11.215Z,0.60
2023-02-19T13:39:38.432Z,0.57
2023-02-19T13:42:05.586Z,0.75
2023-02-19T13:44:33.413Z,0.63
2023-02-19T13:47:00.898Z,0.80
2023-02-19T13:49:28.098Z,0.80
2023-02-19T13:51:55.318Z,0.60
2023-02-19T13:54:33.354Z,0.70
2023-02-19T13:57:18.899Z,0.55
2023-02-19T13:59:46.431Z,0.88
2023-02-19T14:02:35.181Z,0.60
2023-02-19T14:05:03.418Z,0.85
2023-02-19T14:07:49.026Z,0.83
2023-02-19T14:10:36.131Z,0.60
2023-02-19T14:13:03.288Z,0.88
2023-02-19T14:15:44.337Z,0.40
2023-02-19T14:18:32.636Z,0.80
2023-02-19T14:21:07.421Z,0.85
2023-02-19T14:23:34.644Z,0.40
2023-02-19T14:26:03.686Z,0.63
2023-02-19T14:28:42.247Z,0.80
2023-02-19T14:31:14.496Z,0.73
2023-02-19T14:33:50.372Z,0.50
2023-02-19T14:36:36.158Z,0.70
2023-02-19T14:39:05.053Z,0.52
2023-02-19T14:41:33.055Z,0.60
2023-02-19T14:44:00.254Z,0.40
2023-02-19T14:46:27.415Z,0.57
2023-02-19T14:48:54.700Z,0.68
2023-02-19T14:51:26.127Z,0.70
2023-02-19T14:53:53.260Z,0.63
2023-02-19T14:56:22.170Z,0.65
2023-02-19T14:59:05.898Z,0.73
2023-02-19T15:01:33.075Z,0.40
2023-02-19T15:04:00.829Z,1.10
2023-02-19T15:06:28.046Z,0.40
2023-02-19T15:08:58.180Z,0.50
2023-02-19T15:11:25.780Z,0.50
2023-02-19T15:13:56.965Z,0.88
2023-02-19T15:16:25.798Z,0.52
2023-02-19T15:18:53.201Z,0.40
2023-02-19T15:21:30.451Z,0.38
2023-02-19T15:23:58.034Z,0.60
2023-02-19T15:26:28.204Z,0.35
2023-02-19T15:28:59.565Z,6.32
2023-02-19T15:31:26.831Z,0.60
2023-02-19T15:33:54.324Z,0.60
2023-02-19T15:36:25.997Z,0.57
2023-02-19T15:38:54.779Z,0.40
2023-02-19T15:41:25.284Z,0.47
2023-02-19T15:43:54.170Z,0.50
2023-02-19T15:46:21.838Z,0.47
2023-02-19T15:48:49.030Z,0.43
2023-02-19T15:51:17.558Z,0.70
2023-02-19T15:53:46.370Z,0.30
2023-02-19T15:56:18.697Z,0.60
2023-02-19T15:58:54.817Z,0.68
2023-02-19T16:01:36.128Z,0.60
2023-02-19T16:04:03.372Z,0.82
2023-02-19T16:06:30.599Z,0.60
2023-02-19T16:09:07.415Z,0.70
2023-02-19T16:11:41.340Z,0.40
2023-02-19T16:14:27.328Z,0.85
2023-02-19T16:16:55.620Z,0.70
2023-02-19T16:19:28.476Z,0.80
2023-02-19T16:21:55.840Z,0.47
2023-02-19T16:24:23.061Z,0.50
2023-02-19T16:26:50.249Z,0.50
2023-02-19T16:29:21.555Z,0.40
2023-02-19T16:31:49.655Z,0.20
2023-02-19T16:34:18.667Z,0.30
2023-02-19T16:36:48.413Z,0.90
2023-02-19T16:39:16.904Z,0.47
2023-02-19T16:41:47.157Z,0.50
2023-02-19T16:44:30.926Z,0.80
2023-02-19T16:47:00.103Z,1.15
2023-02-19T16:49:27.280Z,5.82
2023-02-19T16:51:54.759Z,3.17
2023-02-19T16:54:21.883Z,2.65
2023-02-19T16:56:49.054Z,2.85
2023-02-19T16:59:16.219Z,1.67
2023-02-19T17:01:43.350Z,1.20
2023-02-19T17:04:11.519Z,1.30
2023-02-19T17:06:39.357Z,1.00
2023-02-19T17:09:06.731Z,0.80
2023-02-19T17:11:33.895Z,1.00
2023-02-19T17:14:01.056Z,0.70
2023-02-19T17:16:29.431Z,0.90
2023-02-19T17:18:56.673Z,0.63
2023-02-19T17:21:25.086Z,0.88
2023-02-19T17:23:52.463Z,2.00
2023-02-19T17:26:20.560Z,3.75
2023-02-19T17:28:47.730Z,2.47
2023-02-19T17:31:15.026Z,2.97
2023-02-19T17:33:42.853Z,5.90
2023-02-19T17:36:17.103Z,29.80
2023-02-19T17:38:44.281Z,15.18
2023-02-19T17:41:11.728Z,4.77
2023-02-19T17:43:39.105Z,2.45
2023-02-19T17:46:06.310Z,10.20
2023-02-19T17:48:33.534Z,4.50
2023-02-19T17:51:00.688Z,2.22
2023-02-19T17:53:27.869Z,1.88
2023-02-19T17:55:55.284Z,1.65
2023-02-19T17:58:22.434Z,2.38
2023-02-19T18:00:49.623Z,2.22
2023-02-19T18:03:16.747Z,1.63
2023-02-19T18:05:43.948Z,1.50
2023-02-19T18:08:13.577Z,1.17
2023-02-19T18:10:40.959Z,1.08
2023-02-19T18:13:09.279Z,0.98
2023-02-19T18:15:36.460Z,0.80
2023-02-19T18:18:04.982Z,1.00
2023-02-19T18:20:32.219Z,0.80
2023-02-19T18:22:59.464Z,1.20
2023-02-19T18:25:26.630Z,0.98
2023-02-19T18:27:53.819Z,0.95
2023-02-19T18:30:22.632Z,1.05
2023-02-19T18:32:49.879Z,0.65
2023-02-19T18:35:17.840Z,1.05
2023-02-19T18:37:45.065Z,1.33
2023-02-19T18:40:12.408Z,1.02
2023-02-19T18:42:40.499Z,0.90
2023-02-19T18:45:07.908Z,0.75
2023-02-19T18:47:35.054Z,1.00
2023-02-19T18:50:02.236Z,1.05
2023-02-19T18:52:29.456Z,0.90
2023-02-19T18:54:57.499Z,1.45
2023-02-19T18:57:25.127Z,1.00
2023-02-19T18:59:52.403Z,0.90
2023-02-19T19:02:19.636Z,1.23
2023-02-19T19:04:49.469Z,1.17
2023-02-19T19:07:16.725Z,1.00
2023-02-19T19:09:44.340Z,1.17
2023-02-19T19:12:11.585Z,1.20
2023-02-19T19:14:38.801Z,1.70
2023-02-19T19:17:06.022Z,1.40
2023-02-19T19:19:33.296Z,1.33
2023-02-19T19:22:00.491Z,1.42
2023-02-19T19:24:27.651Z,1.50
2023-02-19T19:26:54.856Z,1.42
2023-02-19T19:29:22.418Z,1.50
2023-02-19T19:31:49.739Z,2.03
2023-02-19T19:34:17.138Z,1.60
2023-02-19T19:36:44.412Z,1.75
2023-02-19T19:39:11.715Z,1.80
2023-02-19T19:41:38.884Z,1.85
2023-02-19T19:44:06.172Z,1.75
2023-02-19T19:46:33.600Z,2.28
2023-02-19T19:49:00.885Z,1.48
2023-02-19T19:51:32.058Z,1.75
2023-02-19T19:53:59.317Z,1.60
2023-02-19T19:56:26.489Z,1.80
2023-02-19T19:58:53.644Z,1.70
2023-02-19T20:01:21.360Z,1.40
2023-02-19T20:03:48.733Z,1.67
2023-02-19T20:06:15.940Z,1.58
2023-02-19T20:08:43.126Z,2.10
2023-02-19T20:11:10.611Z,1.92
2023-02-19T20:13:37.942Z,1.33
2023-02-19T20:16:06.093Z,1.60
2023-02-19T20:18:34.852Z,2.03
2023-02-19T20:21:03.762Z,1.17
2023-02-19T20:23:31.018Z,2.17
2023-02-19T20:25:58.210Z,6.40
2023-02-19T20:28:25.355Z,2.10
2023-02-19T20:30:52.620Z,20.60
2023-02-19T20:33:19.836Z,1.70
2023-02-19T20:35:46.982Z,1.70
2023-02-19T20:38:17.254Z,0.90
2023-02-19T20:40:44.480Z,1.52
2023-02-19T20:43:11.724Z,2.60
2023-02-19T20:45:39.213Z,1.95
2023-02-19T20:48:06.464Z,2.10
2023-02-19T20:50:33.751Z,3.77
2023-02-19T20:53:01.224Z,1.65
2023-02-19T20:55:28.774Z,3.22
2023-02-19T20:57:55.932Z,2.95
2023-02-19T21:00:23.279Z,2.50
2023-02-19T21:02:50.561Z,1.48
2023-02-19T21:05:18.263Z,1.17
2023-02-19T21:07:45.422Z,1.60
2023-02-19T21:10:12.891Z,1.50
2023-02-19T21:12:42.813Z,1.80
2023-02-19T21:15:10.478Z,2.08
2023-02-19T21:17:37.818Z,1.40
2023-02-19T21:20:05.402Z,1.38
2023-02-19T21:22:32.715Z,1.30
2023-02-19T21:24:59.998Z,1.40
2023-02-19T21:27:27.425Z,1.15
2023-02-19T21:29:54.761Z,1.20
2023-02-19T21:32:22.235Z,1.00
2023-02-19T21:34:49.826Z,1.55
2023-02-19T21:37:17.009Z,1.17
2023-02-19T21:39:44.148Z,1.05
2023-02-19T21:42:11.321Z,1.00
2023-02-19T21:44:38.480Z,1.17
2023-02-19T21:47:05.655Z,1.27
2023-02-19T21:49:32.820Z,1.50
2023-02-19T21:52:00.062Z,1.13
2023-02-19T21:54:27.242Z,1.17
2023-02-19T21:56:54.590Z,1.33
2023-02-19T21:59:21.871Z,1.20
2023-02-19T22:01:50.527Z,1.13
2023-02-19T22:04:18.296Z,0.90
2023-02-19T22:06:45.576Z,1.05
2023-02-19T22:09:13.459Z,1.10
2023-02-19T22:11:40.804Z,0.60
2023-02-19T22:14:08.034Z,1.30
2023-02-19T22:16:35.305Z,1.50
2023-02-19T22:19:02.603Z,1.30
2023-02-19T22:21:33.983Z,1.45
2023-02-19T22:24:01.740Z,1.40
2023-02-19T22:26:30.032Z,1.10
2023-02-19T22:28:58.291Z,0.90
2023-02-19T22:31:26.087Z,1.30
2023-02-19T22:33:53.586Z,1.70
2023-02-19T22:36:21.892Z,1.10
2023-02-19T22:38:49.101Z,1.10
2023-02-19T22:41:16.542Z,1.10
2023-02-19T22:43:43.864Z,1.80
2023-02-19T22:46:20.624Z,1.63
2023-02-19T22:48:47.983Z,1.48
2023-02-19T22:51:16.044Z,1.63
2023-02-19T22:53:52.743Z,1.70
2023-02-19T22:56:21.293Z,1.60
2023-02-19T22:58:48.433Z,1.70
2023-02-19T23:01:15.808Z,1.70
2023-02-19T23:03:49.768Z,2.30
2023-02-19T23:06:17.833Z,1.60
2023-02-19T23:08:45.076Z,1.52
2023-02-19T23:11:12.526Z,1.35
2023-02-19T23:13:41.917Z,1.83
2023-02-19T23:16:09.371Z,1.90
2023-02-19T23:18:36.690Z,2.28
2023-02-19T23:21:03.872Z,1.65
2023-02-19T23:23:31.015Z,2.00
2023-02-19T23:25:58.226Z,1.90
2023-02-19T23:28:25.410Z,1.70
2023-02-19T23:30:52.716Z,1.50
2023-02-19T23:33:19.993Z,1.88
2023-02-19T23:35:47.340Z,1.70
2023-02-19T23:38:14.717Z,1.48
2023-02-19T23:40:41.959Z,1.88
2023-02-19T23:43:09.388Z,1.52
2023-02-19T23:45:36.721Z,2.28
2023-02-19T23:48:04.284Z,1.90
2023-02-19T23:50:31.540Z,1.80
2023-02-19T23:52:59.498Z,1.55
2023-02-19T23:55:27.015Z,1.40
2023-02-19T23:57:54.167Z,1.80
